Time;durP1;ratioP1;P1;durP2;ratioP2;P2;SDS_P1;SDS_P2;PMS_P1;PMS_P2;Temp;Humidity;BMP_temperature;BMP_pressure;BME280_temperature;BME280_humidity;BME280_pressure;Samples;Min_cycle;Max_cycle;Signal;HPM_P1;HPM_P2
2021/09/23 00:00:24;;;;;;;2.40;2.20;;;23.60;53.40;;;;;;6261766;23;20365;-86
2021/09/23 00:05:29;;;;;;;2.53;2.33;;;23.60;53.40;;;;;;6271620;23;20368;-85
2021/09/23 00:07:59;;;;;;;2.30;1.90;;;23.60;53.40;;;;;;6261835;23;20362;-85
2021/09/23 00:10:33;;;;;;;2.33;2.10;;;23.60;53.40;;;;;;6235130;23;20373;-85
2021/09/23 00:13:06;;;;;;;2.70;2.20;;;23.60;53.40;;;;;;6236252;23;20370;-85
2021/09/23 00:15:44;;;;;;;2.73;2.53;;;23.60;53.40;;;;;;6236954;23;20441;-85
2021/09/23 00:18:20;;;;;;;4.17;2.27;;;23.60;53.40;;;;;;6237049;23;20362;-85
2021/09/23 00:20:49;;;;;;;2.93;2.43;;;23.60;53.40;;;;;;6263277;23;20411;-85
2021/09/23 00:23:43;;;;;;;3.10;2.60;;;23.60;53.40;;;;;;6236947;23;20870;-85
2021/09/23 00:29:19;;;;;;;3.23;2.83;;;23.60;53.50;;;;;;6240401;23;20377;-85
2021/09/23 00:31:53;;;;;;;3.20;2.60;;;23.60;53.50;;;;;;6238335;23;20411;-85
2021/09/23 00:34:27;;;;;;;2.70;2.40;;;23.60;53.50;;;;;;6238491;23;20739;-85
2021/09/23 00:36:56;;;;;;;2.30;2.10;;;23.50;53.40;;;;;;6239598;23;20673;-85
2021/09/23 00:39:28;;;;;;;2.43;2.23;;;23.50;53.40;;;;;;6238500;23;20905;-85
2021/09/23 00:42:08;;;;;;;2.80;2.00;;;23.50;53.30;;;;;;6266158;23;20353;-85
2021/09/23 00:44:39;;;;;;;3.70;2.30;;;23.60;53.40;;;;;;6238414;23;20385;-85
2021/09/23 00:47:37;;;;;;;2.60;2.23;;;23.50;53.30;;;;;;6264900;23;20412;-85
2021/09/23 00:50:12;;;;;;;2.50;2.30;;;23.50;53.30;;;;;;6238608;23;20377;-85
2021/09/23 00:52:41;;;;;;;2.40;2.17;;;23.50;53.40;;;;;;6266005;23;20789;-85
2021/09/23 00:55:14;;;;;;;2.90;2.60;;;23.50;53.40;;;;;;6238742;23;20384;-85
2021/09/23 00:57:45;;;;;;;2.40;2.20;;;23.50;53.40;;;;;;6264882;23;20469;-85
2021/09/23 01:00:17;;;;;;;2.47;2.27;;;23.60;53.50;;;;;;6238530;23;20373;-85
2021/09/23 01:02:46;;;;;;;2.27;2.07;;;23.50;53.40;;;;;;6238612;23;20373;-85
2021/09/23 01:05:27;;;;;;;2.30;2.10;;;23.50;53.30;;;;;;6238913;23;20859;-85
2021/09/23 01:07:53;;;;;;;2.63;2.43;;;23.60;53.40;;;;;;6238850;23;20380;-85
2021/09/23 01:10:28;;;;;;;2.30;2.10;;;23.50;53.40;;;;;;6239099;23;20408;-85
2021/09/23 01:12:54;;;;;;;2.53;2.20;;;23.60;53.50;;;;;;6264144;23;20338;-86
2021/09/23 01:15:42;;;;;;;2.67;2.43;;;23.50;53.30;;;;;;6207666;23;20384;-86
2021/09/23 01:18:10;;;;;;;2.53;2.20;;;23.50;53.30;;;;;;6231656;23;20464;-86
2021/09/23 01:20:42;;;;;;;2.40;1.97;;;23.50;53.40;;;;;;6259886;23;20661;-86
2021/09/23 01:23:13;;;;;;;2.60;2.40;;;23.50;53.30;;;;;;6234569;23;20361;-86
2021/09/23 01:25:41;;;;;;;2.40;2.20;;;23.50;53.30;;;;;;6233710;23;20399;-86
2021/09/23 01:28:10;;;;;;;2.53;2.33;;;23.50;53.30;;;;;;6233968;23;20754;-86
2021/09/23 01:30:37;;;;;;;3.37;2.63;;;23.50;53.30;;;;;;6233960;23;20852;-86
2021/09/23 01:33:15;;;;;;;2.77;2.57;;;23.50;53.30;;;;;;6233227;23;20413;-86
2021/09/23 01:35:59;;;;;;;2.70;2.47;;;23.50;53.30;;;;;;6233656;23;20405;-86
2021/09/23 01:38:28;;;;;;;3.17;2.57;;;23.50;53.30;;;;;;6233001;23;20370;-86
2021/09/23 01:40:56;;;;;;;2.60;2.40;;;23.50;53.30;;;;;;6238846;23;20413;-87
2021/09/23 01:43:24;;;;;;;2.47;2.20;;;23.50;53.40;;;;;;6266484;23;20400;-87
2021/09/23 01:45:53;;;;;;;2.40;2.20;;;23.50;53.40;;;;;;6214302;23;20433;-87
2021/09/23 01:48:31;;;;;;;2.57;2.07;;;23.50;53.30;;;;;;6239781;23;20377;-87
2021/09/23 01:50:56;;;;;;;2.43;2.23;;;23.50;53.30;;;;;;6239878;23;20377;-87
2021/09/23 01:53:31;;;;;;;2.80;2.60;;;23.50;53.30;;;;;;6239488;23;20416;-87
2021/09/23 01:56:03;;;;;;;2.23;2.00;;;23.50;53.30;;;;;;6239554;23;20189;-87
2021/09/23 01:58:29;;;;;;;2.83;2.53;;;23.50;53.30;;;;;;6239343;23;20409;-87
2021/09/23 02:00:57;;;;;;;3.10;2.10;;;23.50;53.30;;;;;;6239280;23;20408;-87
2021/09/23 02:03:23;;;;;;;2.57;2.33;;;23.50;53.30;;;;;;6238877;23;20385;-87
2021/09/23 02:05:52;;;;;;;1.97;1.77;;;23.50;53.30;;;;;;6265423;23;20417;-87
2021/09/23 02:08:22;;;;;;;2.50;2.30;;;23.50;53.30;;;;;;6238520;23;20593;-87
2021/09/23 02:10:53;;;;;;;2.93;2.23;;;23.50;53.30;;;;;;6238635;23;20369;-87
2021/09/23 02:13:19;;;;;;;2.70;2.10;;;23.50;53.30;;;;;;6238820;23;20388;-87
2021/09/23 02:15:52;;;;;;;2.57;2.17;;;23.50;53.30;;;;;;6265835;23;20361;-87
2021/09/23 02:18:19;;;;;;;2.63;2.00;;;23.50;53.30;;;;;;6265902;23;20381;-87
2021/09/23 02:21:06;;;;;;;2.23;2.03;;;23.50;53.40;;;;;;6238636;23;20392;-87
2021/09/23 02:23:32;;;;;;;2.50;2.30;;;23.50;53.40;;;;;;6238828;23;20138;-87
2021/09/23 02:25:58;;;;;;;3.10;2.77;;;23.50;53.40;;;;;;6239910;23;20962;-87
2021/09/23 02:28:27;;;;;;;2.30;2.03;;;23.50;53.40;;;;;;6238582;23;20413;-87
2021/09/23 02:30:53;;;;;;;2.10;1.80;;;23.50;53.30;;;;;;6239462;23;20150;-87
2021/09/23 02:33:21;;;;;;;2.50;2.30;;;23.50;53.40;;;;;;6239615;23;20374;-87
2021/09/23 02:35:55;;;;;;;2.50;2.30;;;23.50;53.40;;;;;;6239015;23;20413;-86
2021/09/23 02:38:38;;;;;;;;;;;;;;;;;;;;;
2021/09/23 02:41:04;;;;;;;2.10;1.90;;;23.50;53.30;;;;;;6265540;23;20354;-87
2021/09/23 02:43:33;;;;;;;1.87;1.77;;;23.50;53.40;;;;;;6238567;23;20464;-87
2021/09/23 02:45:59;;;;;;;2.23;2.00;;;23.50;53.30;;;;;;6265695;23;20467;-87
2021/09/23 02:48:28;;;;;;;2.13;1.93;;;23.50;53.40;;;;;;6238811;23;20382;-87
2021/09/23 02:51:02;;;;;;;2.87;2.23;;;23.50;53.40;;;;;;6238762;23;20365;-87
2021/09/23 02:53:31;;;;;;;2.47;2.27;;;23.50;53.40;;;;;;6238769;23;20441;-87
2021/09/23 02:56:01;;;;;;;2.60;2.30;;;23.40;53.30;;;;;;6214522;23;20407;-87
2021/09/23 02:58:28;;;;;;;2.03;1.83;;;23.50;53.40;;;;;;6265289;23;20389;-87
2021/09/23 03:00:59;;;;;;;2.30;2.10;;;23.40;53.80;;;;;;6238252;23;20392;-87
2021/09/23 03:03:31;;;;;;;2.27;2.07;;;23.40;53.30;;;;;;6264913;23;20341;-87
2021/09/23 03:05:57;;;;;;;2.27;2.07;;;23.50;53.40;;;;;;6239658;23;20413;-87
2021/09/23 03:08:25;;;;;;;2.40;2.20;;;23.50;53.40;;;;;;6239799;23;20373;-87
2021/09/23 03:10:52;;;;;;;2.70;2.50;;;23.50;53.40;;;;;;6265696;23;20396;-87
2021/09/23 03:13:18;;;;;;;2.73;2.10;;;23.50;53.40;;;;;;6239650;23;20405;-88
2021/09/23 03:15:44;;;;;;;2.03;1.87;;;23.40;53.30;;;;;;6239545;23;20176;-87
2021/09/23 03:18:11;;;;;;;2.47;2.27;;;23.40;53.30;;;;;;6239577;23;20147;-87
2021/09/23 03:20:37;;;;;;;2.20;2.00;;;23.50;53.40;;;;;;6240025;23;20391;-87
2021/09/23 03:23:03;;;;;;;2.53;1.93;;;23.40;53.30;;;;;;6239928;23;20404;-87
2021/09/23 03:25:32;;;;;;;3.07;2.00;;;23.40;53.30;;;;;;6239376;23;20440;-87
2021/09/23 03:27:58;;;;;;;2.70;2.10;;;23.50;53.30;;;;;;6239668;23;20147;-87
2021/09/23 03:30:27;;;;;;;2.40;2.20;;;23.40;53.30;;;;;;6214147;23;20405;-87
2021/09/23 03:32:53;;;;;;;2.90;1.97;;;23.40;53.30;;;;;;6240006;23;20460;-87
2021/09/23 03:35:22;;;;;;;2.43;2.23;;;23.40;53.30;;;;;;6238452;23;20391;-87
2021/09/23 03:38:03;;;;;;;2.23;2.03;;;23.40;53.30;;;;;;6238070;23;20156;-87
2021/09/23 03:40:30;;;;;;;2.30;2.10;;;23.40;53.20;;;;;;6239622;23;20365;-87
2021/09/23 03:42:56;;;;;;;5.67;2.07;;;23.40;53.30;;;;;;6238927;23;20374;-87
2021/09/23 03:45:23;;;;;;;2.27;2.00;;;23.40;53.20;;;;;;6265567;23;20836;-87
2021/09/23 03:47:51;;;;;;;3.10;2.50;;;23.40;53.30;;;;;;6238990;23;20491;-87
2021/09/23 03:50:17;;;;;;;2.87;2.20;;;23.40;53.20;;;;;;6238712;23;20381;-87
2021/09/23 03:56:07;;;;;;;2.80;2.50;;;23.40;53.20;;;;;;6266319;23;20352;-87
2021/09/23 03:58:33;;;;;;;3.63;2.37;;;23.40;53.80;;;;;;6214176;23;20408;-87
2021/09/23 04:00:59;;;;;;;2.80;2.17;;;23.40;53.20;;;;;;6264885;23;20432;-87
2021/09/23 04:03:25;;;;;;;3.37;2.00;;;23.40;53.20;;;;;;6239469;23;20441;-87
2021/09/23 04:05:51;;;;;;;3.13;2.53;;;23.40;53.20;;;;;;6265093;23;20421;-87
2021/09/23 04:08:17;;;;;;;3.90;2.57;;;23.40;53.20;;;;;;6239281;23;20157;-87
2021/09/23 04:10:43;;;;;;;2.37;2.17;;;23.40;53.20;;;;;;6214049;23;20398;-87
2021/09/23 04:13:13;;;;;;;2.67;2.40;;;23.40;53.20;;;;;;6237740;23;20433;-87
2021/09/23 04:18:36;;;;;;;2.53;2.30;;;23.40;53.20;;;;;;6265148;23;20349;-87
2021/09/23 04:21:34;;;;;;;;;;;;;;;;;;;;;
2021/09/23 04:24:23;;;;;;;2.43;2.23;;;23.40;53.10;;;;;;6265027;23;20377;-87
2021/09/23 04:27:16;;;;;;;2.23;2.03;;;23.40;53.20;;;;;;6232369;23;20468;-88
2021/09/23 04:30:11;;;;;;;2.43;2.23;;;23.40;53.20;;;;;;6238006;23;20388;-87
2021/09/23 04:32:57;;;;;;;2.60;2.27;;;23.30;53.10;;;;;;6214881;23;20381;-88
2021/09/23 04:35:23;;;;;;;2.43;2.20;;;23.30;53.20;;;;;;6234874;23;20381;-87
2021/09/23 04:38:17;;;;;;;;;;;;;;;;;;;;;
2021/09/23 04:41:13;;;;;;;;;;;;;;;;;;;;;
2021/09/23 04:44:32;;;;;;;;;;;;;;;;;;;;;
2021/09/23 04:50:22;;;;;;;2.10;1.90;;;23.30;53.30;;;;;;6264411;23;20427;-87
2021/09/23 04:52:52;;;;;;;2.07;1.73;;;23.30;53.30;;;;;;6264580;23;20365;-86
2021/09/23 04:55:25;;;;;;;2.30;2.10;;;23.30;53.30;;;;;;6265292;23;20377;-86
2021/09/23 04:57:56;;;;;;;2.47;2.27;;;23.30;53.30;;;;;;6238842;23;20397;-86
2021/09/23 05:00:39;;;;;;;2.50;2.30;;;23.30;53.30;;;;;;6236857;23;20377;-87
2021/09/23 05:03:06;;;;;;;2.27;1.77;;;23.40;53.40;;;;;;6239226;23;20425;-86
2021/09/23 05:05:46;;;;;;;2.40;2.07;;;23.30;53.30;;;;;;6262733;23;20393;-86
2021/09/23 05:08:24;;;;;;;;;;;;;;;;;;;;;
2021/09/23 05:11:30;;;;;;;;;;;;;;;;;;;;;
2021/09/23 05:14:29;;;;;;;;;;;;;;;;;;;;;
2021/09/23 05:17:11;;;;;;;2.50;2.30;;;23.40;53.40;;;;;;6265297;23;20346;-87
2021/09/23 05:19:46;;;;;;;3.40;2.63;;;23.40;53.40;;;;;;6239117;23;20377;-87
2021/09/23 05:22:45;;;;;;;;;;;;;;;;;;;;;
2021/09/23 05:29:06;;;;;;;2.63;2.27;;;23.40;53.40;;;;;;6265931;23;20369;-87
2021/09/23 05:31:42;;;;;;;2.30;2.10;;;23.40;53.40;;;;;;6264722;23;20353;-87
2021/09/23 05:34:16;;;;;;;3.77;2.00;;;23.40;53.50;;;;;;6215800;23;20378;-87
2021/09/23 05:36:55;;;;;;;;;;;;;;;;;;;;;
2021/09/23 05:39:21;;;;;;;2.13;1.93;;;23.40;53.50;;;;;;6266434;23;20353;-87
2021/09/23 05:49:13;;;;;;;;;;;;;;;;;;;;;
2021/09/23 05:51:49;;;;;;;3.10;2.80;;;23.40;53.10;;;;;;6261636;23;20418;-87
2021/09/23 05:54:23;;;;;;;5.33;2.80;;;23.30;53.00;;;;;;6238188;23;20375;-87
2021/09/23 05:57:05;;;;;;;3.27;2.67;;;23.30;53.00;;;;;;6239406;23;20345;-87
2021/09/23 05:59:33;;;;;;;2.47;2.27;;;23.30;53.00;;;;;;6239173;23;20426;-87
2021/09/23 06:02:16;;;;;;;;;;;;;;;;;;;;;
2021/09/23 06:05:06;;;;;;;2.63;2.23;;;23.40;53.10;;;;;;6265276;23;20365;-87
2021/09/23 06:07:37;;;;;;;2.50;2.30;;;23.40;53.10;;;;;;6238425;23;20413;-88
2021/09/23 06:10:15;;;;;;;2.97;2.40;;;23.40;53.10;;;;;;6238230;23;20444;-87
2021/09/23 06:16:22;;;;;;;3.70;2.60;;;23.40;53.10;;;;;;6265291;23;20843;-87
2021/09/23 06:21:44;;;;;;;2.73;2.13;;;23.40;53.20;;;;;;6208041;23;20377;-87
2021/09/23 06:24:13;;;;;;;2.37;2.17;;;23.40;53.20;;;;;;6238612;23;20358;-87
2021/09/23 06:26:46;;;;;;;2.13;1.93;;;23.40;53.20;;;;;;6238520;23;20413;-87
2021/09/23 06:29:31;;;;;;;2.67;2.20;;;23.40;53.20;;;;;;6237810;23;20370;-87
2021/09/23 06:32:20;;;;;;;2.10;1.90;;;23.40;53.20;;;;;;6237833;23;20373;-87
2021/09/23 06:35:33;;;;;;;2.10;1.90;;;23.40;53.10;;;;;;6213663;23;20378;-87
2021/09/23 06:38:25;;;;;;;;;;;;;;;;;;;;;
2021/09/23 06:44:21;;;;;;;3.03;2.20;;;23.40;53.20;;;;;;6218117;23;20369;-88
2021/09/23 06:47:02;;;;;;;2.70;2.50;;;23.40;53.20;;;;;;6238534;23;20424;-88
2021/09/23 06:49:34;;;;;;;2.30;2.10;;;23.50;53.20;;;;;;6237514;23;20396;-88
2021/09/23 06:52:11;;;;;;;2.47;2.27;;;23.50;53.10;;;;;;6263961;23;20338;-88
2021/09/23 06:54:51;;;;;;;;;;;;;;;;;;;;;
2021/09/23 06:57:21;;;;;;;2.53;2.00;;;23.50;53.10;;;;;;6264291;23;20350;-88
2021/09/23 07:07:47;;;;;;;;;;;;;;;;;;;;;
2021/09/23 07:13:44;;;;;;;;;;;;;;;;;;;;;
2021/09/23 07:16:34;;;;;;;3.80;2.33;;;23.60;53.10;;;;;;6263596;23;20365;-86
2021/09/23 07:20:00;;;;;;;2.83;2.20;;;23.60;53.10;;;;;;6238148;23;20397;-88
2021/09/23 07:23:12;;;;;;;;;;;;;;;;;;;;;
2021/09/23 07:26:25;;;;;;;2.13;1.93;;;23.60;53.10;;;;;;6108489;23;20390;-87
2021/09/23 07:29:38;;;;;;;;;;;;;;;;;;;;;
2021/09/23 07:32:39;;;;;;;3.03;2.23;;;23.60;53.10;;;;;;6113039;23;20389;-87
2021/09/23 07:35:34;;;;;;;;;;;;;;;;;;;;;
2021/09/23 07:38:26;;;;;;;2.00;1.80;;;23.70;53.20;;;;;;6102004;23;20414;-85
2021/09/23 07:41:07;;;;;;;;;;;;;;;;;;;;;
2021/09/23 07:44:24;;;;;;;;;;;;;;;;;;;;;
2021/09/23 07:47:11;;;;;;;2.87;2.00;;;23.70;53.10;;;;;;6112394;23;20444;-87
2021/09/23 07:50:19;;;;;;;;;;;;;;;;;;;;;
2021/09/23 07:53:10;;;;;;;2.13;1.93;;;23.80;53.10;;;;;;6112358;23;20390;-87
2021/09/23 07:55:47;;;;;;;;;;;;;;;;;;;;;
2021/09/23 07:58:41;;;;;;;;;;;;;;;;;;;;;
2021/09/23 08:01:18;;;;;;;2.77;2.23;;;23.80;53.10;;;;;;6263155;23;20373;-87
2021/09/23 08:03:54;;;;;;;2.87;2.07;;;23.80;53.10;;;;;;6235211;23;20392;-86
2021/09/23 08:06:45;;;;;;;;;;;;;;;;;;;;;
2021/09/23 08:16:23;;;;;;;2.37;2.17;;;23.90;53.10;;;;;;6111482;23;20364;-87
2021/09/23 08:22:09;;;;;;;2.73;2.13;;;23.90;53.10;;;;;;6099254;23;20713;-85
2021/09/23 08:25:03;;;;;;;;;;;;;;;;;;;;;
2021/09/23 08:27:42;;;;;;;;;;;;;;;;;;;;;
2021/09/23 08:30:44;;;;;;;;;;;;;;;;;;;;;
2021/09/23 08:37:11;;;;;;;;;;;;;;;;;;;;;
2021/09/23 08:39:46;;;;;;;2.50;2.03;;;24.00;53.10;;;;;;6110320;23;20390;-87
2021/09/23 08:42:33;;;;;;;2.40;2.20;;;24.00;53.10;;;;;;6064204;23;20440;-87
2021/09/23 08:45:30;;;;;;;;;;;;;;;;;;;;;
2021/09/23 08:48:16;;;;;;;2.17;1.97;;;24.10;53.10;;;;;;6118867;23;20453;-87
2021/09/23 08:54:24;;;;;;;2.30;2.10;;;24.10;53.10;;;;;;6242314;23;20373;-86
2021/09/23 08:57:44;;;;;;;;;;;;;;;;;;;;;
2021/09/23 09:08:05;;;;;;;3.17;2.33;;;24.10;53.10;;;;;;6215434;23;20428;-87
2021/09/23 09:20:01;;;;;;;2.90;2.30;;;24.10;53.20;;;;;;6109717;23;20385;-87
2021/09/23 09:26:37;;;;;;;;;;;;;;;;;;;;;
2021/09/23 09:33:27;;;;;;;;;;;;;;;;;;;;;
2021/09/23 09:36:51;;;;;;;;;;;;;;;;;;;;;
2021/09/23 09:40:33;;;;;;;2.43;2.23;;;24.10;53.20;;;;;;6046856;23;20380;-86
2021/09/23 09:50:07;;;;;;;;;;;;;;;;;;;;;
2021/09/23 09:52:56;;;;;;;;;;;;;;;;;;;;;
2021/09/23 09:59:17;;;;;;;2.20;2.00;;;24.10;53.10;;;;;;5941236;24;20420;-87
2021/09/23 10:01:58;;;;;;;2.20;2.00;;;24.20;53.20;;;;;;5925468;24;20387;-87
2021/09/23 10:05:07;;;;;;;2.80;1.70;;;24.20;53.20;;;;;;5946856;24;20398;-87
2021/09/23 10:28:31;;;;;;;1.70;1.60;;;24.20;53.10;;;;;;6112465;23;20523;-85
2021/09/23 10:31:49;;;;;;;;;;;;;;;;;;;;;
2021/09/23 10:34:39;;;;;;;3.03;1.83;;;24.20;53.10;;;;;;6172299;23;20371;-86
2021/09/23 10:37:58;;;;;;;;;;;;;;;;;;;;;
2021/09/23 10:40:33;;;;;;;1.97;1.77;;;24.20;53.10;;;;;;6146274;23;20384;-87
2021/09/23 10:43:14;;;;;;;2.00;1.77;;;24.20;53.10;;;;;;6169962;23;20359;-86
2021/09/23 10:45:43;;;;;;;2.30;2.10;;;24.20;53.10;;;;;;6121705;23;20890;-88
2021/09/23 10:48:59;;;;;;;;;;;;;;;;;;;;;
2021/09/23 11:09:12;;;;;;;3.93;2.57;;;24.10;53.20;;;;;;6169405;23;20368;-87
2021/09/23 11:18:41;;;;;;;2.73;2.50;;;24.00;53.30;;;;;;6119483;23;20466;-86
2021/09/23 11:28:27;;;;;;;2.33;2.13;;;24.00;53.30;;;;;;6023252;23;20367;-86
2021/09/23 11:34:22;;;;;;;3.00;2.70;;;24.00;53.30;;;;;;6094286;23;20372;-86
2021/09/23 11:44:05;;;;;;;3.43;2.27;;;24.00;53.30;;;;;;6109612;23;20361;-86
2021/09/23 11:47:05;;;;;;;;;;;;;;;;;;;;;
2021/09/23 11:57:11;;;;;;;;;;;;;;;;;;;;;
2021/09/23 12:04:03;;;;;;;;;;;;;;;;;;;;;
2021/09/23 12:06:33;;;;;;;2.13;1.83;;;23.90;53.30;;;;;;6109201;23;20460;-86
2021/09/23 12:13:07;;;;;;;;;;;;;;;;;;;;;
2021/09/23 12:19:03;;;;;;;2.60;2.40;;;23.80;53.20;;;;;;5964168;23;20397;-86
2021/09/23 12:21:58;;;;;;;3.00;2.20;;;23.80;53.20;;;;;;5964295;24;20410;-87
2021/09/23 12:24:52;;;;;;;2.27;2.07;;;23.80;53.30;;;;;;5964430;24;20386;-87
2021/09/23 12:27:51;;;;;;;2.70;1.90;;;23.80;53.20;;;;;;5966094;24;20509;-86
2021/09/23 12:30:25;;;;;;;2.53;2.27;;;23.90;53.30;;;;;;5933699;23;20392;-86
2021/09/23 12:36:40;;;;;;;2.70;2.23;;;23.90;53.20;;;;;;5973075;24;20378;-87
2021/09/23 12:42:58;;;;;;;2.57;2.33;;;23.80;53.20;;;;;;5994430;24;20410;-87
2021/09/23 12:51:48;;;;;;;2.60;2.40;;;23.80;53.20;;;;;;6142363;23;20380;-86
2021/09/23 12:58:52;;;;;;;3.40;2.60;;;23.80;53.10;;;;;;6107700;23;20369;-87
2021/09/23 13:01:44;;;;;;;3.80;2.50;;;23.80;53.20;;;;;;6184826;23;20843;-86
2021/09/23 13:04:53;;;;;;;;;;;;;;;;;;;;;
2021/09/23 13:07:45;;;;;;;;;;;;;;;;;;;;;
2021/09/23 13:13:46;;;;;;;3.40;2.77;;;23.80;53.20;;;;;;6260263;23;20380;-86
2021/09/23 13:16:39;;;;;;;2.70;2.30;;;23.70;53.10;;;;;;6234723;23;20377;-86
2021/09/23 13:19:08;;;;;;;2.73;2.53;;;23.80;53.20;;;;;;6259791;23;20369;-87
2021/09/23 13:25:36;;;;;;;2.40;2.07;;;23.80;53.10;;;;;;6232571;23;20415;-85
2021/09/23 13:28:34;;;;;;;2.60;2.27;;;23.80;53.10;;;;;;6231781;23;20421;-85
2021/09/23 13:31:34;;;;;;;2.40;2.20;;;23.70;53.10;;;;;;6232724;23;20424;-85
2021/09/23 13:37:35;;;;;;;2.93;2.57;;;23.70;53.10;;;;;;6174471;23;20383;-85
2021/09/23 13:51:15;;;;;;;2.70;2.50;;;23.70;53.10;;;;;;6217053;23;20387;-85
2021/09/23 13:53:49;;;;;;;2.87;2.27;;;23.60;53.10;;;;;;6230650;23;20371;-85
2021/09/23 13:57:05;;;;;;;;;;;;;;;;;;;;;
2021/09/23 14:06:46;;;;;;;3.40;2.40;;;23.60;53.00;;;;;;6176428;23;20426;-86
2021/09/23 14:26:26;;;;;;;2.87;2.60;;;23.60;53.00;;;;;;6138815;23;20404;-85
2021/09/23 14:29:47;;;;;;;;;;;;;;;;;;;;;
2021/09/23 14:46:55;;;;;;;;;;;;;;;;;;;;;
2021/09/23 15:10:07;;;;;;;2.80;2.43;;;23.50;52.90;;;;;;5938113;23;20408;-87
2021/09/23 15:13:25;;;;;;;2.83;2.53;;;23.50;52.90;;;;;;5956199;24;20410;-85
2021/09/23 15:19:23;;;;;;;3.00;2.70;;;23.50;52.90;;;;;;5885565;24;20885;-85
2021/09/23 15:22:37;;;;;;;;;;;;;;;;;;;;;
2021/09/23 15:35:21;;;;;;;2.47;2.13;;;23.50;52.90;;;;;;5937996;24;20370;-86
2021/09/23 15:54:50;;;;;;;2.63;2.23;;;23.40;52.80;;;;;;6025423;23;20368;-86
2021/09/23 16:01:15;;;;;;;3.70;2.50;;;23.40;52.70;;;;;;5990986;23;20387;-87
2021/09/23 16:07:34;;;;;;;3.97;2.70;;;23.40;52.50;;;;;;5970403;24;20456;-85
2021/09/23 16:10:31;;;;;;;5.03;2.63;;;23.30;52.40;;;;;;5970249;24;20390;-83
2021/09/23 16:13:00;;;;;;;2.73;2.53;;;23.30;52.40;;;;;;5977965;23;20382;-84
2021/09/23 16:15:51;;;;;;;3.00;2.70;;;23.30;52.50;;;;;;6000738;24;20750;-85
2021/09/23 16:18:29;;;;;;;2.43;2.23;;;23.30;52.60;;;;;;6039813;23;20406;-87
2021/09/23 16:23:54;;;;;;;2.53;2.33;;;23.30;52.70;;;;;;6205030;23;20371;-85
2021/09/23 16:40:15;;;;;;;;;;;;;;;;;;;;;
2021/09/23 16:42:59;;;;;;;3.03;2.30;;;23.20;52.80;;;;;;6201823;23;20374;-86
2021/09/23 16:45:30;;;;;;;3.00;2.57;;;23.20;52.80;;;;;;6178829;23;20382;-85
2021/09/23 16:48:05;;;;;;;2.80;2.60;;;23.30;52.90;;;;;;6203517;23;20418;-86
2021/09/23 16:53:48;;;;;;;2.53;2.33;;;23.30;52.90;;;;;;6207147;22;20382;-86
2021/09/23 16:56:23;;;;;;;3.70;2.60;;;23.30;52.70;;;;;;6206266;23;20390;-85
2021/09/23 16:59:08;;;;;;;3.10;2.60;;;23.30;52.80;;;;;;6179122;23;20379;-86
2021/09/23 17:01:34;;;;;;;3.10;2.40;;;23.30;52.70;;;;;;6196580;23;20386;-86
2021/09/23 17:04:17;;;;;;;2.70;2.30;;;23.30;52.80;;;;;;6209640;23;20401;-86
2021/09/23 17:06:48;;;;;;;2.87;2.57;;;23.30;52.80;;;;;;6209363;23;20939;-86
2021/09/23 17:09:16;;;;;;;3.50;2.30;;;23.30;52.90;;;;;;6235618;23;20377;-86
2021/09/23 17:11:44;;;;;;;2.73;2.43;;;23.30;52.80;;;;;;6235907;23;20502;-86
2021/09/23 17:17:19;;;;;;;4.37;2.90;;;23.30;52.80;;;;;;6235315;23;20355;-84
2021/09/23 17:19:49;;;;;;;2.73;2.20;;;23.30;52.80;;;;;;6234627;23;20390;-85
2021/09/23 17:22:15;;;;;;;3.20;2.90;;;23.30;52.80;;;;;;6236505;23;20473;-84
2021/09/23 17:24:41;;;;;;;2.27;2.00;;;23.30;52.90;;;;;;6236514;23;20382;-84
2021/09/23 17:27:07;;;;;;;3.43;2.33;;;23.20;52.80;;;;;;6236787;23;20183;-85
2021/09/23 17:29:33;;;;;;;2.63;2.07;;;23.20;52.90;;;;;;6241403;23;20598;-85
2021/09/23 17:31:59;;;;;;;4.03;2.67;;;23.20;52.90;;;;;;6238954;23;20403;-85
2021/09/23 17:34:27;;;;;;;2.40;2.20;;;23.20;52.90;;;;;;6268113;23;20166;-85
2021/09/23 17:36:53;;;;;;;2.80;2.40;;;23.20;52.90;;;;;;6267357;23;20389;-85
2021/09/23 17:39:25;;;;;;;2.13;1.93;;;23.20;53.00;;;;;;6241370;23;20398;-85
2021/09/23 17:41:50;;;;;;;2.40;2.13;;;23.20;53.10;;;;;;6216343;23;20146;-85
2021/09/23 17:44:22;;;;;;;2.70;2.37;;;23.10;52.90;;;;;;6241266;23;20388;-85
2021/09/23 17:46:51;;;;;;;2.90;2.37;;;23.10;52.90;;;;;;6241123;23;20177;-84
2021/09/23 17:52:30;;;;;;;2.63;2.43;;;23.10;53.00;;;;;;6237682;23;20404;-85
2021/09/23 17:54:59;;;;;;;2.23;2.00;;;23.10;53.10;;;;;;6241008;23;20454;-86
2021/09/23 17:57:26;;;;;;;2.77;2.33;;;23.10;53.10;;;;;;6240952;23;20472;-85
2021/09/23 17:59:55;;;;;;;2.97;2.37;;;23.10;53.20;;;;;;6240599;23;20377;-84
2021/09/23 18:02:21;;;;;;;2.77;1.90;;;23.10;53.20;;;;;;6241620;23;20761;-85
2021/09/23 18:04:50;;;;;;;3.90;2.33;;;23.10;53.20;;;;;;6237914;23;20385;-85
2021/09/23 18:07:44;;;;;;;3.27;2.63;;;23.10;53.50;;;;;;6241066;23;20509;-85
2021/09/23 18:10:12;;;;;;;2.63;2.43;;;23.10;53.20;;;;;;6261989;23;20389;-85
2021/09/23 18:12:39;;;;;;;2.87;2.20;;;23.00;53.20;;;;;;6267905;23;20370;-84
2021/09/23 18:15:05;;;;;;;2.37;2.17;;;23.00;53.20;;;;;;6241120;23;20377;-85
2021/09/23 18:17:31;;;;;;;4.00;2.10;;;23.00;53.20;;;;;;6241110;23;20412;-85
2021/09/23 18:20:07;;;;;;;3.23;2.27;;;23.00;53.20;;;;;;6240366;23;20373;-85
2021/09/23 18:22:36;;;;;;;2.50;2.30;;;23.00;53.30;;;;;;6240010;23;20385;-86
2021/09/23 18:25:15;;;;;;;2.60;2.40;;;23.00;53.30;;;;;;6214872;23;20424;-86
2021/09/23 18:27:49;;;;;;;2.53;2.33;;;23.00;53.30;;;;;;6239833;23;20451;-86
2021/09/23 18:30:21;;;;;;;3.00;2.03;;;23.00;53.30;;;;;;6239806;23;20451;-86
2021/09/23 18:33:17;;;;;;;3.30;2.40;;;23.00;53.30;;;;;;6240957;23;20373;-86
2021/09/23 18:36:18;;;;;;;3.47;2.50;;;23.00;53.30;;;;;;6224012;23;20388;-87
2021/09/23 18:42:53;;;;;;;;;;;;;;;;;;;;;
2021/09/23 18:48:51;;;;;;;2.50;2.30;;;22.90;53.40;;;;;;5973249;23;20390;-86
2021/09/23 18:51:33;;;;;;;;;;;;;;;;;;;;;
2021/09/23 18:54:26;;;;;;;3.70;2.33;;;22.90;53.50;;;;;;5972743;24;20438;-87
2021/09/23 18:57:05;;;;;;;2.83;2.63;;;22.90;53.40;;;;;;5972549;24;20382;-87
2021/09/23 18:59:39;;;;;;;2.50;2.13;;;22.90;53.50;;;;;;5972060;24;20415;-87
2021/09/23 19:02:40;;;;;;;2.70;2.50;;;22.90;53.50;;;;;;5972549;24;20374;-87
2021/09/23 19:05:20;;;;;;;;;;;;;;;;;;;;;
2021/09/23 19:08:00;;;;;;;2.40;2.20;;;22.90;53.50;;;;;;5973022;24;20429;-86
2021/09/23 19:11:16;;;;;;;;;;;;;;;;;;;;;
2021/09/23 19:14:07;;;;;;;2.53;2.10;;;22.90;53.50;;;;;;5971962;24;20378;-86
2021/09/23 19:16:49;;;;;;;2.70;2.50;;;22.90;53.50;;;;;;6009409;23;20399;-87
2021/09/23 19:19:29;;;;;;;;;;;;;;;;;;;;;
2021/09/23 19:21:55;;;;;;;2.97;2.50;;;22.80;53.50;;;;;;6040202;23;20380;-86
2021/09/23 19:30:54;;;;;;;2.20;2.00;;;22.80;53.50;;;;;;6140807;23;20465;-86
2021/09/23 19:33:24;;;;;;;2.40;2.20;;;22.80;53.60;;;;;;6238142;23;20370;-85
2021/09/23 19:35:55;;;;;;;2.70;2.47;;;22.80;53.60;;;;;;6265183;23;20441;-85
2021/09/23 19:38:32;;;;;;;;;;;;;;;;;;;;;
2021/09/23 19:41:04;;;;;;;2.70;2.37;;;22.80;53.50;;;;;;6265972;23;20388;-85
2021/09/23 19:43:53;;;;;;;1.97;1.70;;;22.80;53.60;;;;;;6239238;23;20381;-86
2021/09/23 19:46:22;;;;;;;2.63;2.43;;;22.80;53.50;;;;;;6251631;23;20756;-85
2021/09/23 19:48:58;;;;;;;2.77;2.47;;;22.80;53.60;;;;;;6238517;23;20385;-85
2021/09/23 19:51:27;;;;;;;2.70;2.50;;;22.80;53.60;;;;;;6238843;23;20851;-85
2021/09/23 19:53:53;;;;;;;2.47;1.87;;;22.80;53.60;;;;;;6239896;23;20472;-86
2021/09/23 19:56:19;;;;;;;3.00;2.30;;;22.80;53.50;;;;;;6239425;23;20453;-85
2021/09/23 19:58:51;;;;;;;3.10;2.00;;;22.80;53.50;;;;;;6266008;23;20445;-85
2021/09/23 20:01:28;;;;;;;2.70;2.50;;;22.80;53.60;;;;;;6265719;23;20380;-86
2021/09/23 20:10:15;;;;;;;2.17;2.00;;;22.80;53.60;;;;;;6143234;23;20726;-86
2021/09/23 20:12:43;;;;;;;1.97;1.77;;;22.80;53.70;;;;;;6118741;23;20407;-86
2021/09/23 20:15:17;;;;;;;2.50;2.23;;;22.80;53.70;;;;;;6143438;23;20373;-85
2021/09/23 20:17:53;;;;;;;2.53;2.33;;;22.70;53.60;;;;;;6144422;23;20369;-85
2021/09/23 20:20:45;;;;;;;2.37;2.17;;;22.80;53.70;;;;;;6143823;23;20377;-86
2021/09/23 20:23:11;;;;;;;3.80;2.40;;;22.80;53.70;;;;;;6118913;23;20382;-86
2021/09/23 20:25:40;;;;;;;2.80;2.03;;;22.70;53.70;;;;;;6119356;23;20393;-85
2021/09/23 20:28:09;;;;;;;2.23;1.80;;;22.80;53.70;;;;;;6143664;23;20484;-85
2021/09/23 20:31:11;;;;;;;3.60;2.20;;;22.80;53.70;;;;;;6142821;23;20432;-86
2021/09/23 20:33:42;;;;;;;2.40;2.20;;;22.80;53.60;;;;;;6057225;23;20371;-86
2021/09/23 20:36:13;;;;;;;2.53;2.20;;;22.70;53.70;;;;;;6110063;23;20456;-85
2021/09/23 20:38:39;;;;;;;2.40;2.20;;;22.70;53.70;;;;;;6208927;23;20371;-85
2021/09/23 20:41:11;;;;;;;3.00;2.60;;;22.70;53.70;;;;;;6208397;23;20741;-86
2021/09/23 20:47:11;;;;;;;2.50;2.30;;;22.70;53.70;;;;;;6086263;23;20429;-87
2021/09/23 20:49:37;;;;;;;3.03;2.40;;;22.70;53.70;;;;;;6062716;23;20383;-86
2021/09/23 20:52:06;;;;;;;2.33;2.13;;;22.70;53.70;;;;;;6062738;23;20383;-86
2021/09/23 20:54:36;;;;;;;3.00;2.40;;;22.70;53.70;;;;;;6063248;23;20382;-86
2021/09/23 20:59:53;;;;;;;2.37;2.17;;;22.70;53.70;;;;;;6043958;23;20434;-85
2021/09/23 21:02:19;;;;;;;2.47;2.27;;;22.70;54.00;;;;;;6063135;23;20409;-86